Time;durP1;ratioP1;P1;durP2;ratioP2;P2;SDS_P1;SDS_P2;PMS_P1;PMS_P2;Temp;Humidity;BMP_temperature;BMP_pressure;BME280_temperature;BME280_humidity;BME280_pressure;Samples;Min_cycle;Max_cycle;Signal;HPM_P1;HPM_P2
2022/05/05 00:02:17;;;;;;;0.40;0.30;;;;;;;12.69;100.00;95675.28;5115612;28;20494;-52
2022/05/05 00:04:46;;;;;;;0.30;0.20;;;;;;;12.75;100.00;95674.19;5115143;28;20465;-52
2022/05/05 00:07:14;;;;;;;0.40;0.30;;;;;;;12.63;100.00;95685.16;5115452;28;20420;-52
2022/05/05 00:09:43;;;;;;;0.40;0.40;;;;;;;12.72;100.00;95688.03;5115307;28;20924;-52
2022/05/05 00:14:59;;;;;;;0.40;0.30;;;;;;;12.72;100.00;95680.06;5115081;28;20459;-52
2022/05/05 00:17:27;;;;;;;0.30;0.20;;;;;;;12.65;100.00;95683.00;5115000;28;20463;-52
2022/05/05 00:19:56;;;;;;;0.40;0.30;;;;;;;12.50;100.00;95685.72;5115097;28;20850;-52
2022/05/05 00:22:25;;;;;;;0.40;0.30;;;;;;;12.00;100.00;95685.88;5115249;28;20459;-53
2022/05/05 00:24:53;;;;;;;0.70;0.70;;;;;;;11.81;100.00;95687.50;5114905;28;20467;-52
2022/05/05 00:27:22;;;;;;;0.40;0.30;;;;;;;11.82;100.00;95689.88;5114915;28;20510;-53
2022/05/05 00:29:51;;;;;;;0.40;0.30;;;;;;;12.17;100.00;95689.03;5115096;28;20467;-53
2022/05/05 00:32:21;;;;;;;0.40;0.30;;;;;;;12.00;100.00;95620.25;5115159;28;20496;-53
2022/05/05 00:34:50;;;;;;;0.40;0.20;;;;;;;12.10;100.00;95688.50;5114985;28;20430;-53
2022/05/05 00:37:18;;;;;;;0.53;0.50;;;;;;;12.21;100.00;95687.44;5115151;28;20494;-53
2022/05/05 00:39:46;;;;;;;0.40;0.30;;;;;;;12.27;100.00;95685.56;5114671;28;20870;-53
2022/05/05 00:42:17;;;;;;;0.30;0.20;;;;;;;12.36;100.00;95683.94;5114646;28;20493;-53
2022/05/05 00:44:46;;;;;;;0.40;0.30;;;;;;;12.38;100.00;95687.91;5114264;28;20497;-53
2022/05/05 00:47:16;;;;;;;0.33;0.20;;;;;;;12.38;100.00;95677.28;5114539;28;21004;-53
2022/05/05 00:49:49;;;;;;;0.30;0.20;;;;;;;12.29;100.00;95684.22;5114560;28;20832;-53
2022/05/05 00:52:18;;;;;;;0.70;0.47;;;;;;;11.84;100.00;95608.06;5114276;28;20454;-52
2022/05/05 00:54:46;;;;;;;0.40;0.30;;;;;;;12.28;100.00;95687.13;5113764;28;20797;-53
2022/05/05 00:57:15;;;;;;;0.30;0.20;;;;;;;12.26;100.00;95676.78;5114251;28;20459;-53
2022/05/05 00:59:44;;;;;;;0.40;0.30;;;;;;;12.14;100.00;95689.56;5114399;28;20459;-53
2022/05/05 01:02:13;;;;;;;0.47;0.47;;;;;;;12.19;100.00;95688.75;5113155;28;20506;-53
2022/05/05 01:04:42;;;;;;;0.30;0.20;;;;;;;11.62;100.00;95681.91;5114230;28;20427;-53
2022/05/05 01:07:12;;;;;;;0.30;0.20;;;;;;;11.60;100.00;95676.06;5114429;28;20462;-53
2022/05/05 01:09:41;;;;;;;0.77;0.30;;;;;;;11.95;100.00;95688.53;5114448;28;20462;-53
2022/05/05 01:12:11;;;;;;;0.40;0.30;;;;;;;11.77;100.00;95662.53;5113952;28;20427;-53
2022/05/05 01:14:39;;;;;;;0.30;0.20;;;;;;;12.12;100.00;95681.06;5113836;28;20919;-53
2022/05/05 01:17:08;;;;;;;0.30;0.20;;;;;;;11.94;100.00;95686.97;5113793;28;20510;-53
2022/05/05 01:19:37;;;;;;;0.30;0.20;;;;;;;11.37;100.00;95684.56;5113601;28;20428;-53
2022/05/05 01:22:07;;;;;;;0.50;0.30;;;;;;;11.39;100.00;95688.53;5112823;28;20558;-53
2022/05/05 01:30:07;;;;;;;0.30;0.20;;;;;;;11.36;100.00;95696.22;5113408;28;20439;-52
2022/05/05 01:32:36;;;;;;;0.40;0.40;;;;;;;11.46;100.00;95698.88;5113364;28;20427;-52
2022/05/05 01:35:05;;;;;;;0.40;0.30;;;;;;;11.62;100.00;95695.19;5113671;28;20424;-52
2022/05/05 01:37:35;;;;;;;0.40;0.30;;;;;;;11.59;100.00;95693.06;5113888;28;20463;-52
2022/05/05 01:40:04;;;;;;;0.40;0.30;;;;;;;11.40;100.00;95703.41;5113424;28;20514;-52
2022/05/05 01:42:32;;;;;;;0.50;0.40;;;;;;;10.88;100.00;95700.13;5113131;28;20470;-52
2022/05/05 01:45:01;;;;;;;0.40;0.30;;;;;;;10.17;100.00;95614.28;5113258;28;20515;-52
2022/05/05 01:47:29;;;;;;;0.40;0.40;;;;;;;10.87;100.00;95705.69;5113148;28;20459;-52
2022/05/05 01:50:01;;;;;;;0.40;0.30;;;;;;;11.28;100.00;95696.78;5113210;28;20930;-52
2022/05/05 01:52:29;;;;;;;0.30;0.20;;;;;;;11.55;100.00;95701.81;5113656;28;20500;-52
2022/05/05 01:54:59;;;;;;;0.37;0.33;;;;;;;11.72;100.00;95700.50;5113228;28;20420;-52
2022/05/05 01:57:28;;;;;;;0.30;0.20;;;;;;;11.68;100.00;95694.16;5113133;28;20905;-52
2022/05/05 01:59:56;;;;;;;0.57;0.37;;;;;;;11.73;100.00;95701.31;5113143;28;20478;-52
2022/05/05 02:02:25;;;;;;;0.30;0.23;;;;;;;11.37;100.00;95692.53;5113020;28;20517;-52
2022/05/05 02:04:53;;;;;;;0.50;0.40;;;;;;;11.62;100.00;95697.84;5113032;28;20431;-52
2022/05/05 02:07:22;;;;;;;0.70;0.40;;;;;;;11.72;100.00;95697.06;5112856;28;20816;-53
2022/05/05 02:09:50;;;;;;;0.30;0.20;;;;;;;11.78;100.00;95703.97;5112890;28;20459;-53
2022/05/05 02:12:20;;;;;;;0.40;0.30;;;;;;;11.72;100.00;95692.56;5113293;28;20435;-53
2022/05/05 02:14:49;;;;;;;0.47;0.47;;;;;;;11.85;100.00;95710.59;5112725;28;20519;-54
2022/05/05 02:17:18;;;;;;;0.30;0.30;;;;;;;11.69;100.00;95711.66;5112859;28;20779;-53
2022/05/05 02:19:47;;;;;;;0.30;0.20;;;;;;;11.77;100.00;95711.13;5112651;28;20458;-53
2022/05/05 02:22:16;;;;;;;0.30;0.30;;;;;;;11.84;100.00;95713.53;5111959;28;20467;-54
2022/05/05 02:24:44;;;;;;;0.40;0.30;;;;;;;11.38;100.00;95705.50;5112996;28;20432;-53
2022/05/05 02:27:14;;;;;;;0.30;0.20;;;;;;;9.63;100.00;95501.78;5112950;28;20456;-53
2022/05/05 02:29:43;;;;;;;0.37;0.27;;;;;;;10.99;100.00;95715.00;5112925;28;20866;-54
2022/05/05 02:32:12;;;;;;;0.30;0.20;;;;;;;11.21;100.00;95717.44;5112576;28;20531;-54
2022/05/05 02:34:40;;;;;;;0.40;0.30;;;;;;;10.52;100.00;95717.78;5112337;28;20466;-53
2022/05/05 02:39:55;;;;;;;0.80;0.37;;;;;;;11.43;100.00;95710.81;5112324;28;21017;-53
2022/05/05 02:42:24;;;;;;;0.33;0.30;;;;;;;11.42;100.00;95717.22;5112666;28;20491;-53
2022/05/05 02:44:53;;;;;;;0.30;0.20;;;;;;;11.58;100.00;95718.03;5112073;28;20498;-53
2022/05/05 02:47:22;;;;;;;0.40;0.30;;;;;;;11.46;100.00;95720.91;5112349;28;20451;-54
2022/05/05 02:49:50;;;;;;;0.40;0.40;;;;;;;11.26;100.00;95718.25;5112575;28;20455;-53
2022/05/05 02:52:20;;;;;;;0.57;0.40;;;;;;;11.27;100.00;95719.84;5112539;28;20451;-53
2022/05/05 02:54:50;;;;;;;0.40;0.40;;;;;;;10.35;100.00;95733.03;5112398;28;20459;-53
2022/05/05 02:57:20;;;;;;;0.83;0.73;;;;;;;9.96;100.00;95743.13;5112461;28;20514;-53
2022/05/05 02:59:48;;;;;;;0.40;0.30;;;;;;;9.86;100.00;95735.13;5112359;28;20435;-53
2022/05/05 03:02:19;;;;;;;0.30;0.20;;;;;;;10.31;100.00;95741.78;5112675;28;20462;-53
2022/05/05 03:04:47;;;;;;;0.40;0.40;;;;;;;10.68;100.00;95737.97;5112666;28;20857;-53
2022/05/05 03:07:16;;;;;;;0.37;0.27;;;;;;;10.34;100.00;95741.25;5112655;28;20856;-53
2022/05/05 03:09:45;;;;;;;0.30;0.20;;;;;;;9.97;100.00;95751.84;5111720;28;20925;-53
2022/05/05 03:12:13;;;;;;;0.50;0.40;;;;;;;9.71;100.00;95682.06;5112287;28;20431;-53
2022/05/05 03:14:43;;;;;;;0.40;0.33;;;;;;;10.16;100.00;95751.22;5112237;28;20514;-52
2022/05/05 03:17:11;;;;;;;0.37;0.30;;;;;;;10.21;100.00;95750.47;5112583;28;20491;-52
2022/05/05 03:19:41;;;;;;;0.40;0.33;;;;;;;10.12;100.00;95758.09;5115045;28;20492;-52
2022/05/05 03:22:09;;;;;;;0.43;0.43;;;;;;;10.27;100.00;95756.59;5116331;28;20423;-53
2022/05/05 03:24:38;;;;;;;1.77;1.13;;;;;;;9.98;100.00;95764.84;5116493;28;20510;-53
2022/05/05 03:27:06;;;;;;;0.30;0.30;;;;;;;10.16;100.00;95764.47;5116363;28;20509;-53
2022/05/05 03:29:35;;;;;;;0.40;0.30;;;;;;;10.63;100.00;95767.13;5115795;28;20960;-53
2022/05/05 03:32:03;;;;;;;0.40;0.37;;;;;;;10.90;100.00;95756.38;5116237;28;20415;-53
2022/05/05 03:34:32;;;;;;;0.40;0.30;;;;;;;10.99;100.00;95762.75;5116503;28;20423;-53
2022/05/05 03:37:02;;;;;;;0.40;0.40;;;;;;;11.15;100.00;95759.09;5116174;28;20468;-53
2022/05/05 03:39:30;;;;;;;0.30;0.30;;;;;;;11.15;100.00;95764.41;5116378;28;20462;-53
2022/05/05 03:41:59;;;;;;;0.40;0.20;;;;;;;10.84;100.00;95770.66;5115969;28;20518;-53
2022/05/05 03:44:27;;;;;;;0.43;0.43;;;;;;;10.56;100.00;95776.34;5115979;28;20573;-53
2022/05/05 03:46:56;;;;;;;0.40;0.30;;;;;;;10.46;100.00;95776.31;5116204;28;20803;-53
2022/05/05 03:49:24;;;;;;;0.43;0.43;;;;;;;10.49;100.00;95776.59;5115973;28;20430;-53
2022/05/05 03:51:55;;;;;;;0.30;0.20;;;;;;;10.53;100.00;95780.31;5115250;28;20423;-53
2022/05/05 03:54:26;;;;;;;0.30;0.30;;;;;;;10.61;100.00;95779.84;5115328;28;20435;-53
2022/05/05 03:56:54;;;;;;;0.40;0.40;;;;;;;10.58;100.00;95779.53;5116407;28;20435;-53
2022/05/05 03:59:23;;;;;;;0.40;0.30;;;;;;;10.62;100.00;95775.34;5115436;28;21012;-53
2022/05/05 04:01:53;;;;;;;0.83;0.47;;;;;;;10.76;100.00;95787.84;5115694;28;20475;-52
2022/05/05 04:04:22;;;;;;;0.40;0.40;;;;;;;10.72;100.00;95791.28;5115702;28;20894;-52
2022/05/05 04:06:50;;;;;;;0.30;0.30;;;;;;;10.78;100.00;95795.53;5115623;28;20427;-53
2022/05/05 04:09:19;;;;;;;0.30;0.20;;;;;;;10.89;100.00;95789.25;5115355;28;20508;-52
2022/05/05 04:11:49;;;;;;;1.63;1.17;;;;;;;10.89;100.00;95789.25;5115369;28;20952;-52
2022/05/05 04:14:17;;;;;;;0.83;0.30;;;;;;;10.94;100.00;95799.88;5115627;28;20415;-52
2022/05/05 04:16:45;;;;;;;0.40;0.30;;;;;;;11.00;100.00;95796.19;5115376;28;20514;-53
2022/05/05 04:19:14;;;;;;;0.50;0.50;;;;;;;11.10;100.00;95801.53;5115242;28;20412;-53
2022/05/05 04:21:43;;;;;;;0.80;0.80;;;;;;;11.24;100.00;95794.66;5115414;28;20486;-53
2022/05/05 04:24:11;;;;;;;0.43;0.30;;;;;;;11.58;100.00;95799.53;5114982;28;20467;-53
2022/05/05 04:26:39;;;;;;;0.40;0.30;;;;;;;11.75;100.00;95803.56;5115635;28;20459;-53
2022/05/05 04:29:10;;;;;;;0.30;0.20;;;;;;;11.68;100.00;95804.84;5114823;28;20474;-53
2022/05/05 04:31:38;;;;;;;0.50;0.30;;;;;;;11.73;100.00;95804.88;5114838;28;20427;-53
2022/05/05 04:34:07;;;;;;;0.30;0.20;;;;;;;11.85;100.00;95806.22;5114869;28;20849;-53
2022/05/05 04:36:37;;;;;;;0.47;0.47;;;;;;;12.01;100.00;95805.16;5115047;28;20917;-53
2022/05/05 04:39:06;;;;;;;0.30;0.20;;;;;;;11.88;100.00;95807.53;5114646;28;20424;-53
2022/05/05 04:41:34;;;;;;;0.83;0.83;;;;;;;10.47;100.00;95815.00;5114703;28;20510;-53
2022/05/05 04:44:03;;;;;;;0.70;0.50;;;;;;;10.34;100.00;95812.81;5114493;28;20582;-53
2022/05/05 04:46:33;;;;;;;0.43;0.43;;;;;;;10.62;100.00;95817.75;5114793;28;20510;-54
2022/05/05 04:49:01;;;;;;;0.37;0.30;;;;;;;10.53;100.00;95827.22;5114516;28;20856;-52
2022/05/05 04:51:29;;;;;;;0.70;0.70;;;;;;;10.35;100.00;95817.84;5114352;28;20452;-52
2022/05/05 04:53:58;;;;;;;0.40;0.30;;;;;;;10.60;100.00;95815.34;5114240;28;20415;-53
2022/05/05 04:56:26;;;;;;;0.97;0.67;;;;;;;11.16;100.00;95815.59;5114767;28;20478;-53
2022/05/05 04:58:55;;;;;;;0.30;0.30;;;;;;;11.36;100.00;95816.44;5114688;28;20519;-53
2022/05/05 05:01:23;;;;;;;1.70;1.60;;;;;;;10.90;100.00;95829.81;5113509;28;20439;-53
2022/05/05 05:03:53;;;;;;;0.97;0.97;;;;;;;11.21;100.00;95826.22;5113557;28;20976;-53
2022/05/05 05:06:21;;;;;;;1.80;1.40;;;;;;;11.15;100.00;95824.63;5114433;28;20423;-53
2022/05/05 05:08:49;;;;;;;0.40;0.30;;;;;;;11.30;100.00;95824.66;5114470;28;20503;-53
2022/05/05 05:11:18;;;;;;;0.40;0.30;;;;;;;10.99;100.00;95834.38;5114016;28;20925;-53
2022/05/05 05:13:46;;;;;;;2.40;0.50;;;;;;;11.52;100.00;95821.78;5114307;28;20455;-53
2022/05/05 05:16:15;;;;;;;4.90;1.60;;;;;;;11.99;100.00;95828.53;5113760;28;20443;-53
2022/05/05 05:19:05;;;;;;;1.03;0.73;;;;;;;12.58;100.00;95823.44;5113939;28;20439;-53
2022/05/05 05:21:33;;;;;;;0.40;0.30;;;;;;;12.63;100.00;95831.41;5113732;28;20913;-53
2022/05/05 05:24:03;;;;;;;0.70;0.43;;;;;;;12.70;100.00;95823.13;5113933;28;20513;-53
2022/05/05 05:26:31;;;;;;;0.30;0.20;;;;;;;12.56;100.00;95820.25;5114066;28;20523;-53
2022/05/05 05:29:00;;;;;;;0.50;0.30;;;;;;;13.00;100.00;95817.75;5114262;28;20482;-53
2022/05/05 05:31:28;;;;;;;1.60;0.53;;;;;;;12.70;100.00;95813.31;5114063;28;20463;-53
2022/05/05 05:33:57;;;;;;;0.60;0.50;;;;;;;12.82;100.00;95815.69;5114151;28;20857;-53
2022/05/05 05:36:27;;;;;;;0.40;0.33;;;;;;;12.84;100.00;95818.06;5114205;28;20408;-53
2022/05/05 05:38:55;;;;;;;0.40;0.40;;;;;;;12.61;100.00;95814.94;5113651;28;21095;-53
2022/05/05 05:41:23;;;;;;;0.50;0.50;;;;;;;13.28;100.00;95813.69;5113127;28;20455;-53
2022/05/05 05:43:52;;;;;;;0.40;0.40;;;;;;;13.57;100.00;95809.25;5113533;28;20494;-54
2022/05/05 05:46:20;;;;;;;0.60;0.60;;;;;;;13.07;100.00;95796.19;5114073;28;20432;-54
2022/05/05 05:48:49;;;;;;;1.03;0.57;;;;;;;13.34;100.00;95804.56;5113809;28;20482;-54
2022/05/05 05:51:17;;;;;;;1.17;1.07;;;;;;;13.90;100.00;95805.84;5113380;28;20476;-54
2022/05/05 05:53:48;;;;;;;0.40;0.30;;;;;;;14.53;100.00;95803.19;5113813;28;20494;-50
2022/05/05 05:56:16;;;;;;;0.47;0.33;;;;;;;14.18;100.00;95806.94;5113375;28;20452;-50
2022/05/05 05:58:44;;;;;;;0.40;0.30;;;;;;;14.72;100.00;95809.41;5113393;28;20924;-51
2022/05/05 06:01:13;;;;;;;0.83;0.40;;;;;;;15.01;98.79;95798.66;5113178;28;20455;-50
2022/05/05 06:03:56;;;;;;;1.10;0.90;;;;;;;14.21;100.00;95829.59;5113272;28;20420;-50
2022/05/05 06:06:25;;;;;;;1.17;1.10;;;;;;;14.56;100.00;95802.63;5113263;28;20427;-50
2022/05/05 06:08:55;;;;;;;0.60;0.60;;;;;;;15.49;95.78;95799.41;5113412;28;20455;-51
2022/05/05 06:11:23;;;;;;;0.53;0.50;;;;;;;15.58;92.55;95795.84;5113329;28;20608;-51
2022/05/05 06:13:52;;;;;;;3.70;0.70;;;;;;;15.41;94.01;95792.81;5113124;28;20431;-51
2022/05/05 06:16:20;;;;;;;0.63;0.63;;;;;;;15.34;96.39;95786.25;5113301;28;20428;-51
2022/05/05 06:18:49;;;;;;;0.40;0.30;;;;;;;15.65;95.27;95798.13;5112901;28;20929;-51
2022/05/05 06:21:17;;;;;;;0.40;0.30;;;;;;;15.65;92.25;95795.47;5112945;28;20419;-51
2022/05/05 06:23:50;;;;;;;3.50;0.70;;;;;;;15.30;95.73;95798.59;5112864;28;20481;-51
2022/05/05 06:26:20;;;;;;;1.07;0.80;;;;;;;15.49;94.63;95786.88;5112918;28;21001;-52
2022/05/05 06:28:49;;;;;;;0.40;0.30;;;;;;;16.33;89.43;95777.00;5112960;28;20889;-51
2022/05/05 06:31:17;;;;;;;0.40;0.30;;;;;;;16.31;86.44;95782.66;5113066;28;20467;-52
2022/05/05 06:33:46;;;;;;;0.60;0.60;;;;;;;16.23;83.68;95794.03;5112860;28;20423;-52
2022/05/05 06:36:14;;;;;;;0.77;0.70;;;;;;;16.91;77.69;95772.75;5112850;28;20971;-52
2022/05/05 06:38:43;;;;;;;0.70;0.43;;;;;;;16.76;78.75;95781.09;5113185;28;20431;-53
2022/05/05 06:41:14;;;;;;;0.50;0.50;;;;;;;17.11;76.92;95744.78;5113043;28;20424;-53
2022/05/05 06:43:44;;;;;;;0.80;0.80;;;;;;;18.24;75.96;95789.13;5112388;28;20494;-53
2022/05/05 06:46:13;;;;;;;0.43;0.40;;;;;;;18.76;66.97;95774.16;5112717;28;20514;-53
2022/05/05 06:48:42;;;;;;;0.60;0.60;;;;;;;18.82;61.54;95772.91;5112576;28;20852;-53
2022/05/05 06:51:10;;;;;;;0.53;0.53;;;;;;;19.17;65.91;95781.09;5112692;28;20477;-54
2022/05/05 06:53:39;;;;;;;0.53;0.50;;;;;;;19.51;59.85;95778.50;5111392;28;20535;-54
2022/05/05 06:56:07;;;;;;;1.07;1.07;;;;;;;19.08;59.95;95780.25;5112336;28;20458;-54
2022/05/05 06:58:35;;;;;;;0.60;0.50;;;;;;;19.41;58.14;95778.81;5111806;28;20857;-54
2022/05/05 07:05:23;;;;;;;0.50;0.40;;;;;;;19.77;54.50;95778.53;5112440;28;20458;-54
2022/05/05 07:06:39;;;;;;;0.43;0.40;;;;;;;20.49;53.09;95776.00;5112163;28;20443;-53
2022/05/05 07:11:54;;;;;;;4.50;0.50;;;;;;;20.95;49.72;95772.53;5112314;28;20419;-56
2022/05/05 07:14:22;;;;;;;0.60;0.60;;;;;;;20.14;49.46;95776.00;5112141;28;20467;-54
2022/05/05 07:16:52;;;;;;;1.60;0.30;;;;;;;20.96;52.02;95772.19;5111717;28;20470;-54
2022/05/05 07:19:20;;;;;;;0.70;0.70;;;;;;;20.15;50.55;95758.75;5112399;28;20431;-56
2022/05/05 07:21:49;;;;;;;0.50;0.30;;;;;;;21.01;50.91;95777.38;5111172;28;20467;-55
2022/05/05 07:24:18;;;;;;;0.60;0.53;;;;;;;20.48;48.59;95764.41;5112076;28;20978;-56
2022/05/05 07:26:46;;;;;;;17.63;0.60;;;;;;;21.40;45.69;95768.97;5112192;28;20459;-56
2022/05/05 07:29:15;;;;;;;0.40;0.30;;;;;;;21.57;46.33;95761.88;5111991;28;20956;-56
2022/05/05 07:31:44;;;;;;;0.40;0.33;;;;;;;21.29;46.70;95765.06;5112331;28;20917;-56
2022/05/05 07:34:14;;;;;;;0.60;0.47;;;;;;;21.52;48.22;95768.28;5112064;28;20419;-56
2022/05/05 07:36:43;;;;;;;1.13;0.73;;;;;;;21.01;47.11;95766.63;5112341;28;20516;-56
2022/05/05 07:39:12;;;;;;;0.83;0.57;;;;;;;20.84;45.95;95761.31;5112010;28;20419;-56
2022/05/05 07:41:40;;;;;;;0.40;0.30;;;;;;;21.91;45.24;95773.25;5111792;28;20594;-55
2022/05/05 07:44:09;;;;;;;0.80;0.50;;;;;;;22.28;48.27;95762.63;5111823;28;20562;-55
2022/05/05 07:46:38;;;;;;;0.47;0.40;;;;;;;21.80;44.72;95761.25;5111622;28;20546;-55
2022/05/05 07:49:07;;;;;;;1.80;0.70;;;;;;;21.82;42.25;95717.75;5111749;28;20440;-55
2022/05/05 07:51:37;;;;;;;0.60;0.57;;;;;;;22.88;42.95;95751.97;5111831;28;20431;-55
2022/05/05 07:56:59;;;;;;;0.50;0.40;;;;;;;22.07;43.97;95755.34;5111750;28;20435;-55
2022/05/05 07:59:28;;;;;;;5.70;0.43;;;;;;;22.23;42.95;95757.41;5111622;28;20451;-55
2022/05/05 08:01:57;;;;;;;0.47;0.43;;;;;;;21.77;42.07;95750.31;5111644;28;20516;-55
2022/05/05 08:04:25;;;;;;;0.57;0.50;;;;;;;22.57;41.18;95757.84;5112358;28;20805;-55
2022/05/05 08:06:55;;;;;;;0.97;0.60;;;;;;;22.92;43.39;95752.09;5115422;28;20459;-55
2022/05/05 08:09:24;;;;;;;0.40;0.30;;;;;;;23.53;42.24;95750.97;5115736;28;20808;-54
2022/05/05 08:12:13;;;;;;;0.73;0.73;;;;;;;22.89;40.71;95625.72;5114579;28;20435;-55
2022/05/05 08:14:41;;;;;;;0.50;0.40;;;;;;;24.19;39.72;95743.25;5115462;28;20864;-55
2022/05/05 08:17:09;;;;;;;0.40;0.37;;;;;;;24.96;40.07;95749.19;5115257;28;20510;-55
2022/05/05 08:19:42;;;;;;;0.40;0.30;;;;;;;25.13;36.46;95718.97;5115719;28;20533;-55
2022/05/05 08:22:12;;;;;;;0.80;0.80;;;;;;;24.62;36.08;95743.25;5115223;28;20458;-55
2022/05/05 08:30:13;;;;;;;0.40;0.30;;;;;;;26.24;33.09;95724.53;5115256;28;20510;-55
2022/05/05 08:32:41;;;;;;;0.50;0.50;;;;;;;24.71;33.83;95652.84;5115367;28;20453;-55
2022/05/05 08:35:10;;;;;;;0.40;0.30;;;;;;;21.30;34.50;95213.94;5115304;28;20978;-54
2022/05/05 08:37:40;;;;;;;0.40;0.30;;;;;;;24.12;35.74;95652.91;5114903;28;21001;-55
2022/05/05 08:40:12;;;;;;;0.50;0.30;;;;;;;24.06;36.83;95722.72;5115195;28;20507;-54
2022/05/05 08:42:41;;;;;;;1.23;0.30;;;;;;;24.84;36.31;95676.84;5114680;28;20435;-54
2022/05/05 08:45:10;;;;;;;1.03;0.90;;;;;;;22.82;35.60;95534.38;5114755;28;20524;-55
2022/05/05 08:47:40;;;;;;;0.40;0.30;;;;;;;24.42;36.04;95673.03;5114788;28;20474;-55
2022/05/05 08:50:10;;;;;;;0.43;0.40;;;;;;;25.98;35.58;95721.69;5114656;28;20466;-54
2022/05/05 08:52:48;;;;;;;0.50;0.50;;;;;;;25.34;36.37;95718.69;5114914;28;20522;-62
2022/05/05 08:55:18;;;;;;;0.90;0.57;;;;;;;26.99;33.77;95713.88;5115130;28;20431;-57
2022/05/05 08:57:47;;;;;;;0.80;0.40;;;;;;;26.98;33.25;95711.53;5114673;28;20447;-58
2022/05/05 09:00:16;;;;;;;0.53;0.50;;;;;;;26.73;34.16;95713.81;5114307;28;20597;-57
2022/05/05 09:02:45;;;;;;;0.33;0.30;;;;;;;26.99;33.82;95710.38;5114296;28;20894;-57
2022/05/05 09:05:14;;;;;;;0.50;0.40;;;;;;;26.89;34.69;95706.31;5114440;28;20424;-58
2022/05/05 09:07:51;;;;;;;0.40;0.33;;;;;;;27.50;34.74;95702.63;5114464;28;20459;-57
2022/05/05 09:10:20;;;;;;;0.40;0.30;;;;;;;27.62;33.11;95692.31;5114675;28;20419;-57
2022/05/05 09:12:58;;;;;;;2.80;0.73;;;;;;;26.41;33.43;95698.88;5114161;28;20423;-57
2022/05/05 09:15:32;;;;;;;0.40;0.30;;;;;;;26.35;33.20;95695.66;5114265;28;20423;-57
2022/05/05 09:18:14;;;;;;;0.43;0.30;;;;;;;26.93;33.61;95662.88;5113039;28;20462;-57
2022/05/05 09:20:44;;;;;;;0.40;0.30;;;;;;;27.87;31.44;95691.84;5114230;28;20983;-57
2022/05/05 09:23:28;;;;;;;0.40;0.40;;;;;;;26.77;31.55;95689.41;5114287;28;20518;-57
2022/05/05 09:25:57;;;;;;;0.40;0.30;;;;;;;28.13;30.24;95686.34;5114065;28;20557;-57
2022/05/05 09:28:28;;;;;;;0.40;0.40;;;;;;;28.32;31.08;95676.03;5113960;28;20456;-57
2022/05/05 09:30:56;;;;;;;0.50;0.40;;;;;;;28.77;31.46;95665.97;5113845;28;20472;-57
2022/05/05 09:33:38;;;;;;;0.40;0.30;;;;;;;28.74;30.29;95672.97;5113719;28;20472;-56
2022/05/05 09:36:08;;;;;;;0.40;0.37;;;;;;;27.83;30.70;95667.25;5113620;28;20427;-57
2022/05/05 09:38:54;;;;;;;0.40;0.30;;;;;;;28.80;29.00;95657.81;5113809;28;20423;-57
2022/05/05 09:41:24;;;;;;;0.40;0.30;;;;;;;29.98;29.07;95657.41;5113715;28;20929;-53
2022/05/05 09:43:55;;;;;;;0.40;0.40;;;;;;;30.09;27.78;95653.53;5113536;28;20474;-53
2022/05/05 09:46:34;;;;;;;0.33;0.30;;;;;;;28.89;27.33;95600.97;5113462;28;21065;-53
2022/05/05 09:49:08;;;;;;;0.40;0.37;;;;;;;27.26;28.15;95654.81;5113554;28;20415;-53
2022/05/05 09:51:39;;;;;;;0.70;0.57;;;;;;;27.23;28.27;95592.16;5113661;28;20453;-53
2022/05/05 09:59:48;;;;;;;0.40;0.40;;;;;;;30.89;25.72;95618.47;5113528;28;20481;-53
2022/05/05 10:05:10;;;;;;;0.73;0.40;;;;;;;30.93;22.22;95634.94;5112435;28;20428;-53
2022/05/05 10:07:44;;;;;;;0.50;0.50;;;;;;;30.17;23.36;95630.53;5113000;28;20546;-53
2022/05/05 10:10:16;;;;;;;2.50;0.30;;;;;;;29.91;24.25;95635.50;5113034;28;20779;-53
2022/05/05 10:12:46;;;;;;;0.50;0.40;;;;;;;31.38;22.13;95621.19;5113494;28;20481;-53
2022/05/05 10:15:14;;;;;;;0.40;0.30;;;;;;;32.14;22.70;95615.06;5113103;28;20463;-53
2022/05/05 10:17:45;;;;;;;0.50;0.40;;;;;;;29.42;22.86;95630.59;5113108;28;20497;-52
2022/05/05 10:20:14;;;;;;;0.40;0.40;;;;;;;30.29;23.49;95614.91;5113266;28;20427;-53
2022/05/05 10:22:49;;;;;;;0.40;0.30;;;;;;;30.26;22.35;95624.66;5113102;28;20455;-53
2022/05/05 10:25:25;;;;;;;0.40;0.30;;;;;;;31.02;22.52;95619.69;5113066;28;20414;-52
2022/05/05 10:27:55;;;;;;;0.30;0.30;;;;;;;31.29;24.36;95606.34;5112674;28;20470;-54
2022/05/05 10:30:34;;;;;;;0.43;0.40;;;;;;;30.33;21.68;95616.50;5113224;28;20451;-52
2022/05/05 10:33:05;;;;;;;0.50;0.40;;;;;;;29.48;22.48;95618.13;5112669;28;20431;-54
2022/05/05 10:35:47;;;;;;;0.30;0.20;;;;;;;30.41;21.67;95603.66;5112666;28;21005;-53
2022/05/05 10:38:41;;;;;;;0.50;0.47;;;;;;;29.69;19.54;95612.75;5112558;28;20449;-54
2022/05/05 10:41:41;;;;;;;0.40;0.40;;;;;;;30.26;20.31;95607.50;5112634;28;20883;-52
2022/05/05 10:44:26;;;;;;;0.40;0.40;;;;;;;29.37;21.35;95615.31;5112541;28;20549;-52
2022/05/05 10:47:02;;;;;;;0.40;0.30;;;;;;;28.56;22.45;95605.75;5112445;28;20511;-53
2022/05/05 10:49:52;;;;;;;0.40;0.30;;;;;;;29.85;20.84;95609.72;5112607;28;20522;-53
2022/05/05 10:52:50;;;;;;;0.37;0.30;;;;;;;29.57;20.91;95602.94;5112166;28;20517;-53
2022/05/05 10:55:27;;;;;;;0.50;0.30;;;;;;;29.86;20.04;95598.41;5112480;28;21003;-52
2022/05/05 10:58:48;;;;;;;0.40;0.40;;;;;;;31.06;20.51;95590.34;5112104;28;20959;-53
2022/05/05 11:01:18;;;;;;;0.50;0.30;;;;;;;30.32;20.69;95600.47;5112036;28;20517;-53
2022/05/05 11:04:05;;;;;;;0.63;0.50;;;;;;;31.66;19.70;95589.41;5112452;28;20928;-53
2022/05/05 11:06:35;;;;;;;0.40;0.30;;;;;;;31.86;20.35;95598.72;5111462;28;20474;-54
2022/05/05 11:09:03;;;;;;;0.60;0.50;;;;;;;30.44;20.94;95595.44;5112553;28;20451;-53
2022/05/05 11:11:41;;;;;;;0.40;0.40;;;;;;;30.39;21.12;95597.75;5112719;28;20514;-53
2022/05/05 11:23:07;;;;;;;0.40;0.30;;;;;;;30.98;19.86;95593.50;5112077;28;20901;-53
2022/05/05 11:25:36;;;;;;;1.47;1.37;;;;;;;29.99;20.79;95593.38;5112017;28;20474;-53
2022/05/05 11:28:05;;;;;;;0.40;0.30;;;;;;;29.85;18.71;95594.13;5112357;28;20868;-52
2022/05/05 11:30:35;;;;;;;0.40;0.40;;;;;;;29.70;19.91;95603.41;5112074;28;20477;-52
2022/05/05 11:33:07;;;;;;;0.30;0.30;;;;;;;31.61;21.47;95590.63;5112246;28;20483;-52
2022/05/05 11:35:56;;;;;;;0.40;0.30;;;;;;;30.17;20.45;95600.44;5112225;28;20435;-51
2022/05/05 11:38:26;;;;;;;0.30;0.30;;;;;;;30.34;20.56;95600.84;5111782;28;20423;-51
2022/05/05 11:41:02;;;;;;;0.40;0.40;;;;;;;31.27;19.99;95584.81;5114876;28;20430;-51
2022/05/05 11:46:19;;;;;;;0.40;0.30;;;;;;;31.78;20.35;95586.22;5115580;28;21021;-52
2022/05/05 11:48:56;;;;;;;0.40;0.40;;;;;;;31.85;19.68;95584.22;5116050;28;20569;-52
2022/05/05 11:51:25;;;;;;;0.40;0.30;;;;;;;30.69;21.58;95593.47;5115968;28;20431;-53
2022/05/05 11:54:05;;;;;;;0.40;0.30;;;;;;;28.36;23.29;95560.78;5116185;28;20514;-51
2022/05/05 11:56:35;;;;;;;0.40;0.30;;;;;;;30.24;23.82;95593.41;5116030;28;20501;-52
2022/05/05 12:02:10;;;;;;;0.30;0.20;;;;;;;29.67;23.52;95593.25;5115194;28;20430;-51
2022/05/05 12:04:46;;;;;;;0.30;0.20;;;;;;;28.67;24.17;95595.72;5115623;28;20518;-51
2022/05/05 12:07:19;;;;;;;0.40;0.33;;;;;;;28.14;24.74;95590.56;5115435;28;20501;-51
2022/05/05 12:09:49;;;;;;;0.50;0.47;;;;;;;27.04;26.48;95601.25;5114685;28;20431;-52
2022/05/05 12:12:19;;;;;;;5.83;1.03;;;;;;;26.72;26.14;95597.22;5115224;28;20423;-52
2022/05/05 12:14:49;;;;;;;0.40;0.30;;;;;;;26.76;27.90;95625.25;5115506;28;20431;-52
2022/05/05 12:17:20;;;;;;;0.40;0.33;;;;;;;24.65;30.33;95627.94;5115331;28;20431;-52
2022/05/05 12:19:52;;;;;;;0.50;0.40;;;;;;;24.57;30.72;95631.59;5115248;28;20423;-52
2022/05/05 12:22:29;;;;;;;0.40;0.30;;;;;;;24.86;30.80;95633.91;5115563;28;20481;-54
2022/05/05 12:25:04;;;;;;;0.37;0.23;;;;;;;24.15;32.35;95639.47;5115310;28;20423;-53
2022/05/05 12:27:34;;;;;;;0.40;0.30;;;;;;;22.97;36.17;95651.84;5115065;28;20527;-53
2022/05/05 12:30:03;;;;;;;0.40;0.30;;;;;;;22.79;37.43;95674.84;5115335;28;20420;-53
2022/05/05 12:32:33;;;;;;;0.40;0.30;;;;;;;22.40;50.04;95674.31;5114843;28;20428;-53
2022/05/05 12:35:05;;;;;;;0.40;0.30;;;;;;;21.27;60.95;95696.41;5115369;28;20480;-53